aviador You're here:

KINT Decoded Metar

WINSTON-SALEM in NC, USA
Report Time2017-10-23 11:02:00
UTC Time2017-10-23 11:29:46
Flight Rules mvfr MVFR
Wind120° at 08 kt
W.Decomp.*RWY 15: 7.4 kt HW 3.1 kt LCW
RWY 04: 0.4 kt HW 8.0 kt RCW
W.Rank120° ranks 36
Current wind is above 120° avg. (4.9)
Visibility9999 m
Phenomena:N/A
Clouds:Overcast 014 Hf
Expected CloudBase > 800 ft AGL from Temp-Dew spread
Ceiling1,400 ft
Temp18°C (ISA +5)
Dew Point16°C (88% RH)
AAT17.1°C
QNH1021 hPa
Density Alt1,506 ft
Elevation955 ft
Report Wrong Elevation
Raw Report
KINT 231102Z 12008KT 10SM OVC014 18/16 A3014 RMK AO2 T01780161=

Extra information for KINT:More info

Metar Taf Metar & Taf Last 4 Metars F.Rules Stats Wind Profile Meteogram Temp Stats Airport Information Weather charts Add Link Nearby VenuesMetar ALERT Operation Metar Decoded Social comments

AIRNAV info for KINT